• Join FlightAware (Why Join?)
  • Login
  • US Flag 
05:19AM EDT


 

Airport Tracker/Info


-or-


 

Live Flight TrackerFlight Track Log ✈ SWA776 ✈ 13-Jul-2013 ✈ KMDW - KOAK

Flight Track Log - Related Links

Times and Time Zones

All times are in EDT time to prevent confusion due to time zone crossing. See the SWA776 flight status page for this flight to view local times or setup timezone preferences in your user account.

Time Position Orientation Groundspeed Altitude Reporting Facility
EDT Latitude Longitude Course Direction KTS MPH feet Rate Location/Type
09:21PM 41.8020 -87.7360 12° North 153 176 1,600  Level FlightAware
09:21PM 41.8170 -87.7560 315° West 209 241 2,300 1,920 Climbing FlightAware
09:22PM 41.8080 -87.8060 256° West 240 276 3,700 1,980 Climbing FlightAware
09:22PM 41.8070 -87.8240 266° West 259 298 3,900 420 Climbing FlightAware
09:22PM 41.8070 -87.8510 270° West 273 314 3,900 1,320 Level FlightAware
09:23PM 41.8060 -87.8990 268° West 282 325 4,900 2,520 Climbing FlightAware
09:23PM 41.8060 -87.9240 270° West 287 330 5,700 3,360 Climbing FlightAware
09:23PM 41.8120 -87.9510 287° West 292 336 6,600 3,420 Climbing FlightAware
09:24PM 41.8180 -87.9720 291° West 295 339 7,300 3,180 Climbing FlightAware
09:24PM 41.8300 -88.0180 289° West 304 350 8,700 3,120 Climbing FlightAware
09:24PM 41.8370 -88.0490 287° West 310 357 9,600 2,100 Climbing FlightAware
09:25PM 41.8550 -88.1240 288° West 352 405 10,700 2,220 Climbing FlightAware
09:26PM 41.8760 -88.2190 287° West 369 425 12,700 2,640 Climbing FlightAware
09:26PM 41.8980 -88.2780 297° West 375 432 13,900 1,980 Climbing FlightAware
09:27PM 41.9360 -88.3380 310° West 401 461 14,800 1,980 Climbing FlightAware
09:27PM 41.9890 -88.4220 310° West 414 476 16,500 2,340 Climbing FlightAware
09:28PM 42.0220 -88.4820 307° West 423 487 17,600 2,340 Climbing FlightAware
09:29PM 42.0360 -88.5870 280° West 430 495 19,200 2,400 Climbing FlightAware
09:29PM 42.0420 -88.6820 275° West 432 497 20,700 2,520 Climbing FlightAware
09:30PM 42.0460 -88.7870 273° West 433 498 22,400 2,160 Climbing FlightAware
09:31PM 42.0500 -88.9090 273° West 443 510 23,800 1,740 Climbing FlightAware
09:31PM 42.0530 -89.0180 272° West 452 520 24,900 1,680 Climbing FlightAware
09:32PM 42.0560 -89.1430 272° West 459 528 26,200 1,740 Climbing FlightAware
09:33PM 42.0590 -89.2560 272° West 462 532 27,400 1,980 Climbing FlightAware
09:33PM 42.0620 -89.3780 272° West 459 528 28,900 1,920 Climbing FlightAware
09:34PM 42.0630 -89.4810 271° West 460 529 29,900 1,440 Climbing FlightAware
09:35PM 42.0650 -89.6000 271° West 467 537 30,800 1,140 Climbing FlightAware
09:35PM 42.0660 -89.7300 271° West 479 551 31,600 660 Climbing FlightAware
09:36PM 42.0740 -89.8390 276° West 495 570 31,700 240 Climbing FlightAware
09:37PM 42.0850 -89.9550 277° West 513 590 31,900 720 Climbing FlightAware
09:37PM 42.0960 -90.0880 276° West 518 596 32,700 1,440 Climbing FlightAware
09:38PM 42.1070 -90.2260 276° West 508 585 34,000 1,920 Climbing FlightAware
09:39PM 42.1180 -90.3670 276° West 490 564 35,600 2,100 Climbing FlightAware
09:39PM 42.1280 -90.4840 277° West 474 545 37,000 1,560 Climbing FlightAware
09:40PM 42.1380 -90.6130 276° West 470 541 37,800 780 Climbing FlightAware
09:41PM 42.1450 -90.7050 276° West 476 548 38,000 120 Climbing FlightAware
09:41PM 42.1540 -90.8310 276° West 478 550 38,000  Level FlightAware
09:42PM 42.1640 -90.9530 276° West 479 551 38,000  Level FlightAware
09:43PM 42.1720 -91.0730 275° West 481 554 38,000  Level FlightAware
09:43PM 42.1800 -91.1800 276° West 481 554 38,000  Level FlightAware
09:44PM 42.1890 -91.3120 275° West 476 548 38,000  Level FlightAware
09:45PM 42.1970 -91.4290 275° West 469 540 38,000  Level FlightAware
09:45PM 42.2060 -91.5590 275° West 466 536 38,000  Level FlightAware
09:46PM 42.2140 -91.6690 276° West 465 535 38,000  Level FlightAware
09:47PM 42.2220 -91.7960 275° West 464 534 38,000  Level FlightAware
09:48PM 42.2320 -91.9450 275° West 461 531 38,000  Level FlightAware
09:48PM 42.2390 -92.0470 275° West 458 527 38,000  Level FlightAware
09:49PM 42.2470 -92.1780 275° West 456 525 38,000  Level FlightAware
09:50PM 42.2530 -92.2700 275° West 455 524 38,000  Level FlightAware
09:50PM 42.2600 -92.3950 274° West 454 522 38,000  Level FlightAware
09:51PM 42.2680 -92.5180 275° West 454 522 38,000  Level FlightAware
09:52PM 42.2740 -92.6220 274° West 454 522 38,000  Level FlightAware
09:52PM 42.2800 -92.7250 275° West 453 521 38,000  Level FlightAware
09:53PM 42.2870 -92.8520 274° West 452 520 38,000  Level FlightAware
09:54PM 42.2940 -92.9660 275° West 451 519 38,000  Level FlightAware
09:54PM 42.3010 -93.0900 274° West 451 519 38,000  Level FlightAware
09:55PM 42.3070 -93.2000 274° West 452 520 38,000  Level FlightAware
09:56PM 42.3130 -93.3250 274° West 452 520 38,000  Level FlightAware
09:57PM 42.3190 -93.4360 274° West 452 520 38,000  Level FlightAware
09:57PM 42.3250 -93.5430 274° West 451 519 38,000  Level FlightAware
09:58PM 42.3300 -93.6570 273° West 450 518 38,000  Level FlightAware
09:59PM 42.3360 -93.7770 274° West 448 516 38,000  Level FlightAware
09:59PM 42.3400 -93.8630 274° West 444 511 38,000  Level FlightAware
09:59PM 42.3440 -93.9260 275° West 443 510 38,000  Level FlightAware
10:01PM 42.3540 -94.1440 274° West 441 507 38,000  Level FlightAware
10:01PM 42.3590 -94.2550 274° West 440 506 38,000  Level FlightAware
10:02PM 42.3640 -94.3770 273° West 440 506 38,000  Level FlightAware
10:03PM 42.3690 -94.4910 273° West 439 505 38,000  Level FlightAware
10:04PM 42.3740 -94.6120 273° West 440 506 38,000  Level FlightAware
10:04PM 42.3780 -94.7130 273° West 440 506 38,000  Level FlightAware
10:05PM 42.3820 -94.8180 273° West 441 507 38,000  Level FlightAware
10:06PM 42.3870 -94.9310 273° West 440 506 38,000  Level FlightAware
10:06PM 42.3910 -95.0510 273° West 436 502 38,000  Level FlightAware
10:07PM 42.3950 -95.1600 273° West 434 499 38,000  Level FlightAware
10:08PM 42.4000 -95.2780 273° West 433 498 38,000  Level FlightAware
10:08PM 42.4030 -95.3850 272° West 432 497 38,000  Level FlightAware
10:09PM 42.4070 -95.5050 273° West 430 495 38,000  Level FlightAware
10:10PM 42.4110 -95.6000 273° West 429 494 38,000  Level FlightAware
10:10PM 42.4140 -95.7060 272° West 427 491 38,000  Level FlightAware
10:11PM 42.4170 -95.8020 272° West 427 491 38,000  Level FlightAware
10:12PM 42.4200 -95.9110 272° West 427 491 38,000  Level FlightAware
10:12PM 42.4240 -96.0270 273° West 429 494 38,000  Level FlightAware
10:13PM 42.4270 -96.1470 272° West 429 494 38,000  Level FlightAware
10:14PM 42.4290 -96.2310 272° West 428 493 38,000  Level FlightAware
10:15PM 42.4320 -96.3400 272° West 428 493 38,000  Level FlightAware
10:15PM 42.4360 -96.4780 272° West 427 491 38,000  Level FlightAware
10:16PM 42.4400 -96.6100 272° West 427 491 38,000  Level FlightAware
10:17PM 42.4420 -96.7290 271° West 426 490 38,000  Level FlightAware
10:18PM 42.4440 -96.8380 271° West 426 490 38,000  Level FlightAware
10:18PM 42.4450 -96.9200 271° West 426 490 38,000  Level FlightAware
10:19PM 42.4460 -97.0020 271° West 426 490 38,000  Level FlightAware
10:19PM 42.4470 -97.0860 271° West 426 490 38,000  Level FlightAware
10:20PM 42.4480 -97.1670 271° West 426 490 38,000  Level FlightAware
10:21PM 42.4550 -97.3790 273° West 423 487 38,000  Level FlightAware
10:22PM 42.4560 -97.4870 271° West 423 487 38,000  Level FlightAware
10:22PM 42.4570 -97.5680 271° West 423 487 38,000  Level FlightAware
10:23PM 42.4610 -97.7350 272° West 421 484 38,000  Level FlightAware
10:24PM 42.4620 -97.8190 271° West 422 486 38,000  Level FlightAware
10:24PM 42.4630 -97.9270 271° West 422 486 38,000  Level FlightAware
10:25PM 42.4640 -98.0080 271° West 422 486 38,000  Level FlightAware
10:26PM 42.4650 -98.0890 271° West 422 486 38,000  Level FlightAware
10:27PM 42.4670 -98.2010 271° West 422 486 38,000  Level FlightAware
10:27PM 42.4680 -98.2820 271° West 422 486 38,000  Level FlightAware
10:28PM 42.4690 -98.3900 271° West 422 486 38,000  Level FlightAware
10:29PM 42.4700 -98.4730 271° West 422 486 38,000  Level FlightAware
10:30PM 42.4720 -98.6080 271° West 422 486 38,000  Level FlightAware
10:30PM 42.4730 -98.6890 271° West 422 486 38,000  Level FlightAware
10:31PM 42.4740 -98.7700 271° West 422 486 38,000  Level FlightAware
10:32PM 42.4760 -98.8780 271° West 422 486 38,000  Level FlightAware
10:32PM 42.4770 -98.9590 271° West 422 486 38,000  Level FlightAware
10:33PM 42.4780 -99.0400 271° West 422 486 38,000  Level FlightAware
10:34PM 42.3508 -99.3494 271° West 428 493 38,000  Level Denver Center
10:35PM 42.3178 -99.5342 256° West 424 488 38,000  Level Denver Center
10:36PM 42.2886 -99.6872 256° West 424 488 38,000  Level Denver Center
10:37PM 42.2664 -99.8100 256° West 424 488 38,000  Level Minneapolis Center
10:38PM 42.2303 -99.9958 255° West 426 490 38,000  Level Minneapolis Center
10:39PM 42.2008 -100.1508 256° West 428 493 38,000  Level Minneapolis Center
10:40PM 42.1717 -100.3053 256° West 427 491 38,000  Level Minneapolis Center
10:41PM 42.1364 -100.4831 255° West 426 490 38,000  Level Denver Center
10:42PM 42.1083 -100.6325 256° West 429 494 38,000  Level Denver Center
10:43PM 42.0778 -100.7811 255° West 432 497 38,000  Level Denver Center
10:44PM 42.0436 -100.9572 255° West 435 501 38,000  Level Denver Center
10:45PM 42.0144 -101.1056 255° West 432 497 38,000  Level Denver Center
10:46PM 41.9794 -101.2808 255° West 435 501 38,000  Level Denver Center
10:52PM 41.7910 -102.1880 255° West 422 486 38,000  Level FlightAware
10:52PM 41.7700 -102.2920 255° West 420 483 38,000  Level FlightAware
10:53PM 41.7450 -102.4090 254° West 420 483 38,000  Level FlightAware
10:54PM 41.7200 -102.5260 254° West 418 481 38,000  Level FlightAware
10:55PM 41.6970 -102.6310 254° West 415 478 38,000  Level FlightAware
10:55PM 41.6810 -102.7000 253° West 416 479 38,000  Level FlightAware
10:56PM 41.6580 -102.8000 253° West 416 479 38,000  Level FlightAware
10:57PM 41.6330 -102.9220 255° West 414 476 38,000  Level FlightAware
10:57PM 41.6160 -102.9970 253° West 414 476 38,000  Level FlightAware
10:58PM 41.5800 -103.1650 254° West 412 474 38,000  Level FlightAware
10:59PM 41.5660 -103.2820 261° West 413 475 38,000  Level FlightAware
11:00PM 41.5580 -103.3760 264° West 413 475 38,000  Level FlightAware
11:00PM 41.5520 -103.4730 265° West 414 476 38,000  Level FlightAware
11:01PM 41.5480 -103.5890 267° West 417 480 38,000  Level FlightAware
11:02PM 41.5440 -103.6790 267° West 417 480 38,000  Level FlightAware
11:02PM 41.5400 -103.7800 267° West 416 479 38,000  Level FlightAware
11:03PM 41.5370 -103.8870 268° West 416 479 38,000  Level FlightAware
11:04PM 41.5330 -103.9850 267° West 413 475 38,000  Level FlightAware
11:04PM 41.5130 -104.0860 255° West 413 475 38,000  Level FlightAware
11:05PM 41.4910 -104.1860 254° West 414 476 38,000  Level FlightAware
11:06PM 41.4700 -104.2830 254° West 415 478 38,000  Level FlightAware
11:06PM 41.4500 -104.3710 253° West 416 479 38,000  Level FlightAware
11:07PM 41.4260 -104.4800 254° West 418 481 38,000  Level FlightAware
11:08PM 41.4040 -104.5790 254° West 419 482 38,000  Level FlightAware
11:08PM 41.3810 -104.6820 253° West 422 486 38,000  Level FlightAware
11:09PM 41.3560 -104.7940 253° West 430 495 38,000  Level FlightAware
11:10PM 41.3330 -104.8940 253° West 429 494 38,000  Level FlightAware
11:11PM 41.3090 -104.9990 253° West 428 493 38,000  Level FlightAware
11:11PM 41.2890 -105.0870 253° West 431 496 38,000  Level FlightAware
11:12PM 41.2670 -105.1830 253° West 435 501 38,000  Level FlightAware
11:12PM 41.2390 -105.3040 253° West 438 504 38,000  Level FlightAware
11:13PM 41.2150 -105.4080 253° West 441 507 38,000  Level FlightAware
11:14PM 41.1910 -105.5150 253° West 441 507 38,000  Level FlightAware
11:15PM 41.1670 -105.6190 253° West 434 499 38,000  Level FlightAware
11:15PM 41.1430 -105.7170 252° West 434 499 38,000  Level FlightAware
11:16PM 41.1180 -105.8260 253° West 436 502 38,000  Level FlightAware
11:17PM 41.0950 -105.9230 253° West 436 502 38,000  Level FlightAware
11:17PM 41.0660 -106.0410 252° West 438 504 38,000  Level FlightAware
11:18PM 41.0470 -106.1230 253° West 437 503 38,000  Level FlightAware
11:19PM 41.0200 -106.2370 253° West 429 494 38,000  Level FlightAware
11:19PM 40.9950 -106.3390 252° West 430 495 38,000  Level FlightAware
11:20PM 40.9690 -106.4480 253° West 429 494 38,000  Level FlightAware
11:21PM 40.9450 -106.5460 252° West 429 494 38,000  Level FlightAware
11:21PM 40.9180 -106.6540 252° West 430 495 38,000  Level FlightAware
11:22PM 40.8930 -106.7580 252° West 431 496 38,000  Level FlightAware
11:23PM 40.8660 -106.8660 252° West 429 494 38,000  Level FlightAware
11:23PM 40.8420 -106.9630 252° West 429 494 38,000  Level FlightAware
11:24PM 40.8160 -107.0700 252° West 428 493 38,000  Level FlightAware
11:25PM 40.7890 -107.1770 252° West 427 491 38,000  Level FlightAware
11:26PM 40.7640 -107.2780 252° West 426 490 38,000  Level FlightAware
11:26PM 40.7370 -107.3850 252° West 424 488 38,000  Level FlightAware
11:27PM 40.7150 -107.4720 252° West 423 487 38,000  Level FlightAware
11:28PM 40.6900 -107.5690 251° West 421 484 38,000  Level FlightAware
11:28PM 40.6650 -107.6670 251° West 418 481 38,000  Level FlightAware
11:29PM 40.6370 -107.7770 251° West 416 479 38,000  Level FlightAware
11:30PM 40.6110 -107.8780 251° West 415 478 38,000  Level FlightAware
11:30PM 40.5860 -107.9730 251° West 413 475 38,000  Level FlightAware
11:31PM 40.5610 -108.0720 252° West 417 480 38,000  Level FlightAware
11:32PM 40.5370 -108.1630 251° West 417 480 38,000  Level FlightAware
11:32PM 40.5110 -108.2620 251° West 417 480 38,000  Level FlightAware
11:33PM 40.4860 -108.3560 251° West 418 481 38,000  Level FlightAware
11:34PM 40.4610 -108.4510 251° West 420 483 38,000  Level FlightAware
11:34PM 40.4360 -108.5480 251° West 422 486 38,000  Level FlightAware
11:35PM 40.4090 -108.6470 250° West 421 484 38,000  Level FlightAware
11:36PM 40.3840 -108.7430 251° West 420 483 38,000  Level FlightAware
11:36PM 40.3560 -108.8490 251° West 419 482 38,000  Level FlightAware
11:37PM 40.3300 -108.9440 250° West 420 483 38,000  Level FlightAware
11:38PM 40.3030 -109.0460 251° West 417 480 38,000  Level FlightAware
11:39PM 40.2740 -109.1500 250° West 417 480 38,000  Level FlightAware
11:39PM 40.2510 -109.2370 251° West 417 480 38,000  Level FlightAware
11:40PM 40.2250 -109.3310 250° West 418 481 38,000  Level FlightAware
11:40PM 40.2140 -109.4300 262° West 424 488 38,000  Level FlightAware
11:41PM 40.2100 -109.5220 267° West 421 484 38,000  Level FlightAware
11:42PM 40.2050 -109.6360 267° West 419 482 38,000  Level FlightAware
11:42PM 40.2000 -109.7390 266° West 418 481 38,000  Level FlightAware
11:43PM 40.1940 -109.8500 266° West 418 481 38,000  Level FlightAware
11:44PM 40.1900 -109.9520 267° West 419 482 38,000  Level FlightAware
11:45PM 40.1860 -110.0490 267° West 421 484 38,000  Level FlightAware
11:45PM 40.1786 -110.1706 267° West 419 482 38,000  Level Denver Center
11:46PM 40.1419 -110.3308 253° West 419 482 38,000  Level Denver Center
11:47PM 40.0947 -110.4589 244° Southwest 412 474 38,000  Level Denver Center
11:48PM 40.0481 -110.5842 244° Southwest 404 465 38,000  Level Denver Center
11:50PM 39.9925 -110.7314 244° Southwest 404 465 38,000  Level Denver Center
11:51PM 39.9217 -110.9186 244° Southwest 401 461 38,000  Level Salt Lake Center
11:52PM 39.8733 -111.0472 244° Southwest 410 472 38,000  Level Salt Lake Center
11:57PM 39.5920 -111.7730 244° Southwest 409 471 38,000  Level FlightAware
11:58PM 39.5440 -111.8960 243° Southwest 409 471 38,000  Level FlightAware
11:59PM 39.5060 -111.9920 243° Southwest 410 472 38,000  Level FlightAware
12:00AM 39.4780 -112.0640 243° Southwest 410 472 38,000  Level FlightAware
12:00AM 39.4410 -112.1580 243° Southwest 408 470 38,000  Level FlightAware
12:01AM 39.3990 -112.2620 242° Southwest 409 471 38,000  Level FlightAware
12:02AM 39.3710 -112.3300 242° Southwest 409 471 38,000  Level FlightAware
12:02AM 39.3440 -112.3960 242° Southwest 409 471 38,000  Level FlightAware
12:03AM 39.3070 -112.4850 242° Southwest 409 471 38,000  Level FlightAware
12:04AM 39.2800 -112.5510 242° Southwest 409 471 38,000  Level FlightAware
12:05AM 39.2440 -112.6390 242° Southwest 409 471 38,000  Level FlightAware
12:05AM 39.2170 -112.7050 242° Southwest 409 471 38,000  Level FlightAware
12:06AM 39.1800 -112.7930 242° Southwest 409 471 38,000  Level FlightAware
12:07AM 39.1530 -112.8590 242° Southwest 409 471 38,000  Level FlightAware
12:07AM 39.1260 -112.9240 242° Southwest 409 471 38,000  Level FlightAware
12:08AM 39.0900 -113.0120 242° Southwest 409 471 38,000  Level FlightAware
12:09AM 39.0630 -113.0780 242° Southwest 409 471 38,000  Level FlightAware
12:09AM 39.0350 -113.1440 241° Southwest 409 471 38,000  Level FlightAware
12:10AM 38.9890 -113.2560 242° Southwest 409 471 38,000  Level FlightAware
12:11AM 39.0875 -113.6592 242° Southwest 407 468 38,000  Level Salt Lake Center
12:12AM 39.0608 -113.7989 256° West 405 466 38,000  Level Salt Lake Center
12:13AM 39.0342 -113.9369 256° West 401 461 38,000  Level Salt Lake Center
12:14AM 39.0072 -114.0753 256° West 401 461 38,000  Level Salt Lake Center
12:15AM 38.9794 -114.2133 256° West 399 459 38,000  Level Salt Lake Center
12:16AM 38.9525 -114.3519 256° West 401 461 38,000  Level Salt Lake Center
12:17AM 38.9244 -114.4903 255° West 402 463 38,000  Level Salt Lake Center
12:18AM 38.8989 -114.6622 259° West 409 471 38,000  Level Salt Lake Center
12:19AM 38.8786 -114.8058 260° West 410 472 38,000  Level Salt Lake Center
12:20AM 38.8575 -114.9489 259° West 411 473 38,000  Level Salt Lake Center
12:21AM 38.8364 -115.0917 259° West 410 472 38,000  Level Salt Lake Center
12:22AM 38.8131 -115.2356 258° West 412 474 38,000  Level Salt Lake Center
12:24AM 38.7917 -115.3764 259° West 415 478 38,000  Level Salt Lake Center
12:25AM 38.7697 -115.5217 259° West 415 478 38,000  Level Salt Lake Center
12:26AM 38.7483 -115.6681 259° West 417 480 38,000  Level Salt Lake Center
12:27AM 38.7244 -115.8156 258° West 424 488 38,000  Level Salt Lake Center
12:28AM 38.7022 -115.9628 259° West 422 486 38,000  Level Salt Lake Center
12:29AM 38.6747 -116.1386 259° West 421 484 38,000  Level Salt Lake Center
12:29AM 38.6619 -116.2264 259° West 420 483 38,000  Level Oakland Center
12:30AM 38.6392 -116.3706 259° West 417 480 38,000  Level Oakland Center
12:31AM 38.6153 -116.5175 258° West 422 486 38,000  Level Oakland Center
12:32AM 38.5875 -116.6894 258° West 415 478 38,000  Level Oakland Center
12:33AM 38.5639 -116.8331 258° West 414 476 38,000  Level Oakland Center
12:34AM 38.5406 -116.9767 258° West 415 478 38,000  Level Oakland Center
12:35AM 38.5167 -117.1186 258° West 414 476 38,000  Level Oakland Center
12:40AM 38.3910 -117.8500 258° West 411 473 38,000  Level FlightAware
12:41AM 38.3750 -117.9450 258° West 411 473 38,000  Level FlightAware
12:42AM 38.3570 -118.0480 257° West 410 472 38,000  Level FlightAware
12:43AM 38.3410 -118.1420 258° West 410 472 38,000  Level FlightAware
12:43AM 38.3240 -118.2360 257° West 409 471 38,000  Level FlightAware
12:44AM 38.3090 -118.3200 257° West 408 470 38,000  Level FlightAware
12:45AM 38.2930 -118.4060 257° West 408 470 38,000  Level FlightAware
12:45AM 38.2760 -118.5060 258° West 408 470 38,000  Level FlightAware
12:46AM 38.2620 -118.5820 257° West 408 470 38,000  Level FlightAware
12:47AM 38.2440 -118.6790 257° West 408 470 38,000  Level FlightAware
12:47AM 38.2210 -118.8100 257° West 409 471 38,000  Level FlightAware
12:48AM 38.2010 -118.9150 256° West 409 471 38,000  Level FlightAware
12:49AM 38.1860 -118.9970 257° West 411 473 38,000  Level FlightAware
12:49AM 38.1690 -119.0910 257° West 413 475 38,000  Level FlightAware
12:50AM 38.1530 -119.1780 257° West 414 476 38,000  Level FlightAware
12:51AM 38.1330 -119.2870 257° West 412 474 38,000  Level FlightAware
12:51AM 38.1170 -119.3700 256° West 411 473 38,000  Level FlightAware
12:52AM 38.0970 -119.4740 256° West 410 472 38,000  Level FlightAware
12:53AM 38.0810 -119.5590 257° West 409 471 38,000  Level FlightAware
12:53AM 38.0630 -119.6530 256° West 408 470 38,000  Level FlightAware
12:54AM 38.0460 -119.7450 257° West 410 472 38,000  Level FlightAware
12:55AM 38.0270 -119.8440 256° West 409 471 38,000 -1,260 Level FlightAware
12:55AM 38.0070 -119.9460 256° West 410 472 36,200 -2,640 Descending FlightAware
12:56AM 37.9870 -120.0500 256° West 416 479 34,200 -2,760 Descending FlightAware
12:57AM 37.9690 -120.1430 256° West 418 481 32,400 -2,820 Descending FlightAware
12:57AM 37.9500 -120.2400 256° West 422 486 30,500 -2,880 Descending FlightAware
12:58AM 37.9330 -120.3260 256° West 420 483 28,800 -2,820 Descending FlightAware
12:59AM 37.9130 -120.4300 256° West 416 479 26,800 -2,820 Descending FlightAware
12:59AM 37.8940 -120.5240 256° West 411 473 24,900 -2,880 Descending FlightAware
01:00AM 37.8760 -120.6140 256° West 409 471 23,100 -2,820 Descending FlightAware
01:01AM 37.8630 -120.7060 260° West 408 470 21,300 -2,220 Descending FlightAware
01:02AM 37.8560 -120.8100 265° West 395 455 20,000 -1,200 Descending FlightAware
01:02AM 37.8500 -120.8970 265° West 357 411 19,700 -1,320 Descending FlightAware
01:03AM 37.8290 -120.9840 253° West 351 404 18,200 -1,980 Descending FlightAware
01:04AM 37.8100 -121.0620 253° West 344 396 17,000 -1,860 Descending FlightAware
01:04AM 37.7890 -121.1430 252° West 339 390 15,700 -1,860 Descending FlightAware
01:05AM 37.7730 -121.2070 252° West 336 387 14,700 -1,740 Descending FlightAware
01:06AM 37.7520 -121.2870 252° West 328 377 13,500 -1,680 Descending FlightAware
01:06AM 37.7330 -121.3630 252° West 324 373 12,300 -1,740 Descending FlightAware
01:07AM 37.7160 -121.4270 251° West 318 366 11,300 -1,680 Descending FlightAware
01:07AM 37.7010 -121.4890 253° West 313 360 10,300 -1,200 Descending FlightAware
01:08AM 37.6870 -121.5440 252° West 290 334 10,000 -900 Descending FlightAware
01:08AM 37.6750 -121.5890 251° West 284 327 9,400 -1,320 Descending FlightAware
01:09AM 37.6640 -121.6320 252° West 282 325 8,800 -1,320 Descending FlightAware
01:09AM 37.6530 -121.6760 252° West 279 321 8,200 -1,380 Descending FlightAware
01:10AM 37.6490 -121.6950 255° West 280 322 7,900 -1,620 Descending FlightAware
01:10AM 37.6450 -121.7400 264° West 280 322 7,100 -1,920 Descending FlightAware
01:11AM 37.6420 -121.7840 265° West 280 322 6,200 -1,320 Descending FlightAware
01:11AM 37.6390 -121.8330 266° West 259 298 5,900 -660 Descending FlightAware
01:11AM 37.6360 -121.8690 264° West 246 283 5,600 -1,080 Descending FlightAware
01:12AM 37.6330 -121.9130 265° West 239 275 4,900 -1,260 Descending FlightAware
01:12AM 37.6300 -121.9550 265° West 236 272 4,300 -1,080 Descending FlightAware
01:13AM 37.6270 -121.9930 264° West 226 260 3,900 -780 Descending FlightAware
01:13AM 37.6250 -122.0260 266° West 207 238 3,600 -900 Descending FlightAware
01:14AM 37.6230 -122.0590 266° West 187 215 3,100 -1,080 Descending FlightAware
01:15AM 37.6270 -122.1000 277° West 160 184 2,400 -960 Descending FlightAware
01:15AM 37.6370 -122.1180 305° West 143 165 2,100 -1,020 Descending FlightAware
01:15AM 37.6500 -122.1370 311° West 142 163 1,500 -960 Descending FlightAware
01:16AM 37.6620 -122.1540 312° West 141 162 1,200 -720 Descending FlightAware
01:16AM 37.6680 -122.1640 307° West 139 160 1,000 -900 Descending FlightAware
01:17AM 37.6790 -122.1810 309° West 136 157 600 -780 Descending FlightAware
01:17AM 37.6910 -122.1990 310° West 131 151 300 -600 Descending FlightAware
01:18AM 37.7000 -122.2120 311° West 129 148 -780 Descending FlightAware
01:18AM 37.7100 -122.2270 310° West 59 68  Level FlightAware
01:19AM 37.7140 -122.2310 322° Northwest 23 26  Level FlightAware
01:19AM 37.7140 -122.2300 90° East 21 24  Level FlightAware
01:20AM 37.7120 -122.2270 130° Southeast 24 28  Level FlightAware
01:20AM 37.7110 -122.2250 122° Southeast 25 29  Level FlightAware
01:20AM 37.7090 -122.2220 130° Southeast 25 29  Level FlightAware
01:20AM 37.7090 -122.2210 90° East 25 29  Level FlightAware
01:21AM 37.7070 -122.2180 130° Southeast 33 38  Level FlightAware
01:21AM 37.7080 -122.2170 38° Northeast 16 18  Level FlightAware
01:22AM 37.7090 -122.2160 38° Northeast 16 18  Level FlightAware
01:26AM 37.7167 -122.2167 270° West  Level FlightAware Approximate
01:27AM 37.7213 -122.2207 270° West  Level Estimated